Latest Coastal Weather Observations for Cape Ferguson

IDQ60701

Issued at 5:51 pm EST Wednesday 1 April 2015 (issued every 10 minutes, with the page automatically refreshed every 10 minutes)

About coastal observations | Map of coastal stations | Coastal observations for QLD | Marine services | Other Formats
Station Details ID: 032182 Name: CAPE FERGUSON NTC AWS Lat: -19.28 Lon: 147.06 Height: 0.0 m
Data from the previous 72 hours. | See also: Recent months for locations in Queensland
Date/Time
EST
Temp

°C
Wind Pressure Rain
since 9am
mm
Weather Cloud Vis
km
Sea
Height
m
Swell
Dir
 
Speed
knots
Gust
knots
hPa Trend Height
m
Period
s
Dir
01/05:30pm 27.3 E 11 13 1011.8 - - - - - - - - -
01/05:00pm 27.3 E 12 14 1011.6 - - - - - - - - -
01/04:30pm 27.3 E 13 15 1011.4 - - - - - - - - -
01/04:00pm 27.3 E 15 19 1011.4 - - - - - - - - -
01/03:30pm 27.3 E 15 18 1011.5 - - - - - - - - -
01/03:00pm 27.2 E 14 17 1011.7 - - - - - - - - -
01/02:30pm 27.4 E 14 17 1011.9 - - - - - - - - -
01/02:00pm 27.4 E 13 16 1012.2 - - - - - - - - -
01/01:30pm 27.4 E 14 17 1012.6 - - - - - - - - -
01/01:00pm 27.3 E 14 16 1013.0 - - - - - - - - -
01/12:30pm 27.4 E 16 19 1013.6 - - - - - - - - -
01/12:00pm 27.8 ESE 14 17 1014.1 - - - - - - - - -
01/11:30am 27.7 ESE 11 15 1014.4 - - - - - - - - -
01/11:00am 27.3 ESE 11 14 1015.2 - - - - - - - - -
01/10:30am 26.8 SE 10 13 1015.6 - - - - - - - - -
01/10:00am 26.5 SE 11 15 1015.7 - - - - - - - - -
01/09:30am 26.2 SSE 11 16 1015.7 - - - - - - - - -
01/09:00am 26.0 SSE 14 18 1015.9 - - - - - - - - -
01/08:30am 25.9 SSE 13 17 1015.7 - - - - - - - - -
01/08:00am 25.6 SSE 13 17 1015.3 - - - - - - - - -
01/07:30am 25.4 SSE 13 16 1015.1 - - - - - - - - -
01/07:00am 25.3 SSE 15 19 1014.9 - - - - - - - - -
01/06:30am 25.1 SSE 15 18 1014.6 - - - - - - - - -
01/06:00am 25.2 SSE 14 17 1014.2 - - - - - - - - -
01/05:30am 25.2 SSE 14 17 1014.0 - - - - - - - - -
01/05:00am 25.3 SSE 13 16 1013.8 - - - - - - - - -
01/04:30am 25.1 SSE 11 13 1013.4 - - - - - - - - -
01/04:00am 25.6 SSE 12 15 1013.2 - - - - - - - - -
01/03:30am 25.9 SSE 12 17 1013.5 - - - - - - - - -
01/03:00am 25.9 S 11 13 1013.6 - - - - - - - - -
01/02:30am 26.0 SSE 10 12 1013.7 - - - - - - - - -
01/02:00am 26.3 SSE 10 13 1013.9 - - - - - - - - -
01/01:30am 26.0 SSE 9 12 1014.1 - - - - - - - - -
01/01:00am 26.1 SE 6 10 1014.5 - - - - - - - - -
01/12:00am 25.2 SSW 7 10 1015.2 - - - - - - - - -
 
Date/Time
EST
Temp

°C
Wind Pressure Rain
since 9am
mm
Weather Cloud Vis
km
Sea
Height
m
Swell
Dir
 
Speed
knots
Gust
knots
hPa Trend Height
m
Period
s
Dir
31/11:30pm 25.4 S 7 11 1015.7 - - - - - - - - -
31/11:00pm 24.9 S 8 10 1015.9 - - - - - - - - -
31/10:30pm 24.0 S 9 13 1016.1 - - - - - - - - -
31/10:00pm 24.3 S 16 21 1016.6 - - - - - - - - -
31/09:30pm 24.3 SSE 18 25 1016.2 - - - - - - - - -
31/09:00pm 27.9 E 15 17 1016.0 - - - - - - - - -
31/08:30pm 27.9 E 13 16 1015.6 - - - - - - - - -
31/08:00pm 27.9 E 14 19 1015.4 - - - - - - - - -
31/07:30pm 27.7 E 13 17 1015.1 - - - - - - - - -
31/07:00pm 27.9 E 13 16 1014.8 - - - - - - - - -
31/06:30pm 27.9 E 13 16 1014.2 - - - - - - - - -
31/06:00pm 27.7 E 14 17 1013.9 - - - - - - - - -
31/05:30pm 27.6 E 14 17 1013.7 - - - - - - - - -
31/05:00pm 27.6 E 14 17 1013.5 - - - - - - - - -
31/04:30pm 27.5 E 14 16 1013.4 - - - - - - - - -
31/04:00pm 27.7 E 14 17 1013.1 - - - - - - - - -
31/03:30pm 27.9 E 15 17 1013.0 - - - - - - - - -
31/03:00pm 27.9 E 13 15 1013.1 - - - - - - - - -
31/02:30pm 28.0 E 12 14 1013.4 - - - - - - - - -
31/02:00pm 27.8 E 12 16 1013.9 - - - - - - - - -
31/01:30pm 27.7 E 12 15 1014.5 - - - - - - - - -
31/01:00pm 27.7 E 12 15 1014.9 - - - - - - - - -
31/12:30pm 27.8 E 11 14 1015.5 - - - - - - - - -
31/12:00pm 27.9 E 11 13 1016.1 - - - - - - - - -
31/11:30am 27.8 E 11 14 1016.5 - - - - - - - - -
31/11:00am 28.0 E 13 16 1017.0 - - - - - - - - -
31/10:30am 27.6 ESE 11 13 1017.3 - - - - - - - - -
31/10:00am 27.4 SE 11 13 1017.4 - - - - - - - - -
31/09:30am 27.0 SE 12 15 1017.5 - - - - - - - - -
31/09:00am 26.7 SSE 11 14 1017.3 - - - - - - - - -
31/08:30am 26.3 SSE 12 14 1017.1 - - - - - - - - -
31/08:00am 26.1 SSE 11 13 1016.9 - - - - - - - - -
31/07:30am 25.6 SSE 12 14 1016.6 - - - - - - - - -
31/07:00am 25.8 SSE 9 11 1016.0 - - - - - - - - -
31/06:30am 25.7 SSE 8 11 1015.5 - - - - - - - - -
31/06:00am 25.6 SSE 7 10 1015.3 - - - - - - - - -
31/05:30am 25.4 S 8 10 1015.0 - - - - - - - - -
31/05:00am 25.6 SSE 10 12 1015.0 - - - - - - - - -
31/04:30am 25.7 SSE 9 12 1014.9 - - - - - - - - -
31/04:00am 25.8 S 10 12 1014.8 - - - - - - - - -
31/03:30am 26.5 SSE 9 11 1014.8 - - - - - - - - -
31/03:00am 26.3 SSE 10 12 1014.8 - - - - - - - - -
31/02:30am 26.7 SE 11 17 1015.1 - - - - - - - - -
31/02:00am 27.5 SE 8 17 1015.4 - - - - - - - - -
31/01:30am 27.6 ESE 13 17 1015.8 - - - - - - - - -
31/01:00am 27.8 ESE 13 17 1016.1 - - - - - - - - -
31/12:30am 27.8 ESE 14 17 1016.6 - - - - - - - - -
31/12:00am 27.8 ESE 15 19 1016.9 - - - - - - - - -
 
Date/Time
EST
Temp

°C
Wind Pressure Rain
since 9am
mm
Weather Cloud Vis
km
Sea
Height
m
Swell
Dir
 
Speed
knots
Gust
knots
hPa Trend Height
m
Period
s
Dir
30/11:30pm 28.0 ESE 15 19 1017.2 - - - - - - - - -
30/11:00pm 27.9 ESE 15 19 1017.5 - - - - - - - - -
30/10:30pm 28.0 ESE 17 19 1017.7 - - - - - - - - -
30/10:00pm 28.0 ESE 17 21 1017.8 - - - - - - - - -
30/09:30pm 28.1 E 17 20 1017.9 - - - - - - - - -
30/09:00pm 28.3 ESE 16 19 1017.7 - - - - - - - - -
30/08:30pm 28.5 E 16 19 1017.4 - - - - - - - - -
30/08:00pm 28.3 E 14 17 1017.2 - - - - - - - - -
30/07:30pm 28.2 E 16 19 1016.9 - - - - - - - - -
30/07:00pm 28.4 E 14 18 1016.5 - - - - - - - - -
30/06:30pm 28.2 E 13 15 1016.1 - - - - - - - - -
30/06:00pm 28.3 E 13 16 1016.0 - - - - - - - - -
30/05:30pm 28.3 E 13 15 1015.7 - - - - - - - - -
30/05:00pm 28.3 E 13 15 1015.8 - - - - - - - - -
30/04:30pm 28.3 E 14 17 1015.6 - - - - - - - - -
30/04:00pm 28.3 E 14 17 1015.4 - - - - - - - - -
30/03:30pm 28.1 E 13 16 1015.3 - - - - - - - - -
30/03:00pm 28.1 E 14 17 1015.1 - - - - - - - - -
30/02:30pm 28.1 E 15 17 1015.2 - - - - - - - - -
30/02:00pm 28.0 E 15 17 1015.4 - - - - - - - - -
30/01:30pm 27.9 E 15 18 1015.6 - - - - - - - - -
30/01:00pm 28.1 E 15 18 1016.1 - - - - - - - - -
30/12:30pm 28.1 E 15 17 1016.5 - - - - - - - - -
30/12:00pm 28.2 E 15 17 1017.1 - - - - - - - - -
30/11:30am 28.2 ESE 13 16 1017.5 - - - - - - - - -
30/11:00am 27.9 ESE 13 16 1018.1 - - - - - - - - -
30/10:30am 28.0 ESE 15 19 1018.4 - - - - - - - - -
30/10:00am 27.9 ESE 15 18 1018.4 - - - - - - - - -
30/09:30am 27.2 SE 12 15 1018.4 - - - - - - - - -
30/09:00am 26.8 SSE 10 13 1018.2 - - - - - - - - -
30/08:30am 26.3 SSE 9 11 1017.8 - - - - - - - - -
30/08:00am 25.5 SE 11 14 1017.4 - - - - - - - - -
30/07:30am 25.7 SSE 12 14 1017.1 - - - - - - - - -
30/07:00am 26.1 SSE 11 14 1016.9 - - - - - - - - -
30/06:30am 25.8 SSE 12 15 1016.7 - - - - - - - - -
30/06:00am 26.0 SSE 12 15 1016.4 - - - - - - - - -
30/05:30am 26.1 SSE 10 12 1016.1 - - - - - - - - -
30/05:00am 26.4 SSE 11 16 1015.9 - - - - - - - - -
30/04:30am 26.2 SSE 9 13 1015.6 - - - - - - - - -
30/04:00am 26.6 SSE 10 13 1015.5 - - - - - - - - -
30/03:30am 26.2 SSE 11 15 1015.5 - - - - - - - - -
30/03:00am 26.7 SSE 8 11 1015.5 - - - - - - - - -
30/02:30am 26.8 SSE 9 11 1015.8 - - - - - - - - -
30/02:00am 27.1 SSE 9 13 1016.0 - - - - - - - - -
30/01:30am 27.7 ESE 14 19 1016.5 - - - - - - - - -
30/01:00am 28.0 ESE 16 20 1016.9 - - - - - - - - -
30/12:30am 28.1 ESE 17 22 1017.2 - - - - - - - - -
30/12:00am 28.1 ESE 17 21 1017.6 - - - - - - - - -
 
Date/Time
EST
Temp

°C
Wind Pressure Rain
since 9am
mm
Weather Cloud Vis
km
Sea
Height
m
Swell
Dir
 
Speed
knots
Gust
knots
hPa Trend Height
m
Period
s
Dir
29/11:30pm 28.1 ESE 16 20 1017.6 - - - - - - - - -
29/11:00pm 28.3 ESE 16 20 1017.8 - - - - - - - - -
29/10:30pm 28.2 ESE 15 20 1017.9 - - - - - - - - -
29/10:00pm 28.2 ESE 16 20 1018.0 - - - - - - - - -
29/09:30pm 28.3 E 18 21 1018.3 - - - - - - - - -
29/09:00pm 28.5 ESE 18 22 1018.2 - - - - - - - - -
29/08:30pm 28.6 ESE 17 21 1017.7 - - - - - - - - -
29/08:00pm 28.5 E 17 21 1017.5 - - - - - - - - -
29/07:30pm 28.8 E 15 19 1017.2 - - - - - - - - -
29/07:00pm 28.5 E 14 18 1016.9 - - - - - - - - -
29/06:30pm 28.5 E 15 17 1016.5 - - - - - - - - -
29/06:00pm 28.5 E 14 17 1016.1 - - - - - - - - -

Other Formats:

Comma delimited format used in spreadsheet applications
http://www.bom.gov.au/fwo/IDQ60701/IDQ60701.94297.axf

JavaScript Object Notation format (JSON) in row-major order
http://www.bom.gov.au/fwo/IDQ60701/IDQ60701.94297.json